Terminal Aerodrome Forecast
Issued by NWS

Home | Current Version | Previous Version | Text Only | Print | Product List | Glossary On
Versions: 1 2 3 4 5 6 7 8 9 10 11 12 13 14 15 16 17 18 19 20 21 22 23 24 25 26
000
FTUS43 KDLH 280102 AAB
TAFBRD
TAF AMD
KBRD 280102Z 2801/2824 20008KT P6SM -RA BKN050
      TEMPO 2801/2805 5SM -TSRA OVC030CB
     FM280600 17008KT 5SM BR VCSH OVC025
     FM281000 06005KT 3SM BR VCSH OVC015
     FM281400 02007KT P6SM VCSH OVC035=

USA.gov is the U.S. government's official web portal to all federal, state and local government web resources and services.